Time;durP1;ratioP1;P1;durP2;ratioP2;P2;SDS_P1;SDS_P2;PMS_P1;PMS_P2;Temp;Humidity;BMP_temperature;BMP_pressure;BME280_temperature;BME280_humidity;BME280_pressure;Samples;Min_cycle;Max_cycle;Signal;HPM_P1;HPM_P2
2024/01/05 00:01:51;;;;;;;7.60;5.60;;;;;;;1.26;98.30;96865.85;106283;1280;22563;-76
2024/01/05 00:04:19;;;;;;;7.50;6.60;;;;;;;1.25;98.43;96879.80;106317;1270;22547;-78
2024/01/05 00:06:49;;;;;;;6.90;5.90;;;;;;;1.22;98.37;96868.45;106642;1269;22546;-77
2024/01/05 00:09:17;;;;;;;8.30;6.60;;;;;;;1.18;98.81;96881.02;106676;1283;22558;-77
2024/01/05 00:11:47;;;;;;;7.90;6.50;;;;;;;1.17;99.02;96880.11;106320;1280;22664;-77
2024/01/05 00:14:15;;;;;;;6.40;5.50;;;;;;;1.14;99.36;96876.88;106563;1269;22550;-77
2024/01/05 00:16:43;;;;;;;6.70;5.60;;;;;;;1.10;99.20;96880.31;106558;1283;24320;-76
2024/01/05 00:19:12;;;;;;;6.20;5.20;;;;;;;1.09;98.74;96880.41;106337;1273;23530;-77
2024/01/05 00:21:40;;;;;;;5.90;5.30;;;;;;;1.06;98.84;96881.79;106284;1283;25428;-77
2024/01/05 00:24:08;;;;;;;6.40;5.70;;;;;;;1.05;98.78;96900.09;106368;1283;22576;-78
2024/01/05 00:26:41;;;;;;;5.40;4.60;;;;;;;1.04;98.57;96897.91;106641;1273;22543;-76
2024/01/05 00:29:10;;;;;;;7.30;5.50;;;;;;;1.06;98.55;96903.80;106487;1268;24389;-76
2024/01/05 00:31:37;;;;;;;5.80;5.20;;;;;;;1.02;98.56;96903.22;106282;1282;23270;-78
2024/01/05 00:34:05;;;;;;;7.30;5.70;;;;;;;1.02;98.63;96900.52;106677;1268;25300;-77
2024/01/05 00:36:34;;;;;;;7.00;5.20;;;;;;;1.01;98.48;96908.09;106593;1283;22651;-77
2024/01/05 00:39:02;;;;;;;6.70;5.40;;;;;;;1.02;98.62;96899.77;106591;1268;25722;-77
2024/01/05 00:41:30;;;;;;;8.10;6.70;;;;;;;1.04;98.39;96902.37;106576;1283;25267;-77
2024/01/05 00:43:57;;;;;;;7.90;6.80;;;;;;;1.01;98.17;96900.02;106594;1280;22553;-76
2024/01/05 00:46:25;;;;;;;7.80;6.90;;;;;;;0.98;98.31;96903.48;106272;1270;24221;-76
2024/01/05 00:48:53;;;;;;;8.60;6.90;;;;;;;0.95;98.16;96907.70;106654;1276;25268;-76
2024/01/05 00:51:21;;;;;;;7.80;7.10;;;;;;;0.94;98.08;96905.05;106670;1283;22680;-77
2024/01/05 00:53:49;;;;;;;6.90;6.20;;;;;;;0.91;97.89;96915.86;106328;1270;22548;-77
2024/01/05 00:56:17;;;;;;;7.40;5.90;;;;;;;0.88;97.95;96917.23;106710;1282;24212;-78
2024/01/05 00:58:45;;;;;;;6.70;5.60;;;;;;;0.85;97.98;96914.41;106635;1277;22556;-78
2024/01/05 01:01:14;;;;;;;6.40;5.80;;;;;;;0.85;97.72;96923.90;106557;1276;22611;-78
2024/01/05 01:03:42;;;;;;;7.40;5.70;;;;;;;0.82;98.01;96927.86;106489;1273;25403;-76
2024/01/05 01:06:10;;;;;;;7.10;5.40;;;;;;;0.82;98.17;96928.34;106436;1275;23367;-77
2024/01/05 01:08:38;;;;;;;8.60;6.90;;;;;;;0.79;98.24;96926.64;106333;1275;24233;-79
2024/01/05 01:11:15;;;;;;;6.70;5.70;;;;;;;0.79;98.25;96936.33;106666;1270;25381;-78
2024/01/05 01:13:44;;;;;;;7.90;5.70;;;;;;;0.78;98.23;96937.56;106285;1272;22555;-77
2024/01/05 01:16:12;;;;;;;6.70;5.60;;;;;;;0.76;98.52;96936.23;106331;1269;25283;-77
2024/01/05 01:18:40;;;;;;;6.30;5.40;;;;;;;0.78;98.68;96940.05;106304;1282;22548;-77
2024/01/05 01:21:09;;;;;;;6.40;5.60;;;;;;;0.77;98.52;96943.81;106306;1273;22751;-76
2024/01/05 01:23:37;;;;;;;5.90;5.00;;;;;;;0.76;98.26;96949.64;106289;1270;24268;-76
2024/01/05 01:26:05;;;;;;;6.80;5.10;;;;;;;0.74;98.19;96945.45;106672;1260;25416;-76
2024/01/05 01:28:33;;;;;;;7.10;5.70;;;;;;;0.73;98.00;96952.81;106336;1274;24229;-77
2024/01/05 01:31:01;;;;;;;7.20;5.60;;;;;;;0.70;98.03;96952.80;106682;1283;22779;-77
2024/01/05 01:33:29;;;;;;;6.20;5.60;;;;;;;0.69;98.17;96955.39;106238;1282;22585;-78
2024/01/05 01:35:57;;;;;;;6.60;5.80;;;;;;;0.67;97.77;96971.77;106592;1283;22550;-77
2024/01/05 01:38:25;;;;;;;6.30;5.00;;;;;;;0.64;97.83;96976.84;106266;1270;22534;-77
2024/01/05 01:40:55;;;;;;;6.30;5.20;;;;;;;0.65;97.83;96979.28;106611;1268;23023;-77
2024/01/05 01:43:25;;;;;;;7.00;6.30;;;;;;;0.66;97.76;96984.48;106219;1283;22559;-77
2024/01/05 01:45:59;;;;;;;7.40;6.60;;;;;;;0.64;97.49;96991.02;106589;1270;22547;-78
2024/01/05 01:48:29;;;;;;;7.60;6.80;;;;;;;0.61;97.53;96989.28;106611;1269;25382;-77
2024/01/05 01:50:58;;;;;;;7.30;6.60;;;;;;;0.58;97.50;96993.34;106605;1283;22865;-78
2024/01/05 01:53:27;;;;;;;7.40;6.60;;;;;;;0.59;97.36;96999.09;106604;1283;23251;-77
2024/01/05 01:55:56;;;;;;;7.10;6.40;;;;;;;0.59;97.51;96999.23;106257;1273;24286;-78
2024/01/05 01:58:24;;;;;;;9.10;7.50;;;;;;;0.58;97.44;97004.76;106278;1283;23970;-79
2024/01/05 02:00:52;;;;;;;7.90;7.10;;;;;;;0.55;97.41;97007.90;106662;1283;24454;-78
2024/01/05 02:03:20;;;;;;;8.30;6.50;;;;;;;0.55;97.50;97009.55;106708;1270;22557;-78
2024/01/05 02:05:48;;;;;;;8.20;7.40;;;;;;;0.56;97.56;97020.13;106590;1270;22554;-78
2024/01/05 02:08:17;;;;;;;8.80;7.90;;;;;;;0.55;97.42;97014.54;106563;1270;22533;-78
2024/01/05 02:10:45;;;;;;;7.80;7.00;;;;;;;0.53;97.12;97016.12;106672;1283;25248;-78
2024/01/05 02:13:13;;;;;;;7.20;6.40;;;;;;;0.49;97.46;97020.82;106657;1269;24092;-79
2024/01/05 02:15:41;;;;;;;8.50;7.70;;;;;;;0.50;97.58;97014.45;106580;1276;23923;-76
2024/01/05 02:18:14;;;;;;;8.70;7.80;;;;;;;0.51;97.69;97017.27;106403;1263;26744;-76
2024/01/05 02:20:46;;;;;;;9.60;8.70;;;;;;;0.49;97.76;97005.75;106774;1282;22544;-79
2024/01/05 02:23:25;;;;;;;7.40;6.70;;;;;;;0.47;97.61;96995.30;106369;1273;25442;-77
2024/01/05 02:25:54;;;;;;;6.40;5.50;;;;;;;0.47;97.74;96992.23;106279;1270;22557;-77
2024/01/05 02:28:23;;;;;;;7.10;6.40;;;;;;;0.46;97.84;96996.94;106617;1274;22558;-78
2024/01/05 02:30:55;;;;;;;6.70;6.00;;;;;;;0.47;97.65;96999.85;106259;1277;22555;-77
2024/01/05 02:33:23;;;;;;;6.20;5.40;;;;;;;0.41;97.49;96995.59;106288;1260;24390;-77
2024/01/05 02:35:52;;;;;;;6.30;5.70;;;;;;;0.41;97.54;97003.39;106416;1270;25280;-78
2024/01/05 02:38:20;;;;;;;6.20;5.50;;;;;;;0.42;97.72;97003.08;106822;1269;22621;-78
2024/01/05 02:44:34;;;;;;;7.00;5.90;;;;;;;0.38;97.70;97009.35;106472;1282;22541;-79
2024/01/05 02:47:02;;;;;;;5.80;5.00;;;;;;;0.37;97.53;97000.22;106606;1283;24228;-79
2024/01/05 02:49:30;;;;;;;6.80;5.20;;;;;;;0.34;97.67;97002.30;106493;1282;24323;-77
2024/01/05 02:51:58;;;;;;;6.80;5.20;;;;;;;0.36;97.91;97003.65;106345;1282;24360;-79
2024/01/05 02:54:27;;;;;;;5.70;5.00;;;;;;;0.41;97.95;97006.98;106568;1283;24300;-78
2024/01/05 02:56:55;;;;;;;6.80;6.10;;;;;;;0.40;98.07;97012.65;106470;1282;23886;-78
2024/01/05 02:59:23;;;;;;;7.00;5.40;;;;;;;0.42;97.72;97017.27;106241;1280;24475;-78
2024/01/05 03:01:51;;;;;;;5.40;4.90;;;;;;;0.39;97.59;97015.65;106521;1273;22537;-78
2024/01/05 03:04:19;;;;;;;4.90;4.40;;;;;;;0.40;97.69;97016.62;106260;1280;22570;-78
2024/01/05 03:06:47;;;;;;;6.30;5.40;;;;;;;0.42;97.83;97016.68;106555;1268;25726;-78
2024/01/05 03:09:15;;;;;;;6.00;5.20;;;;;;;0.40;97.95;97020.23;106523;1274;23938;-78
2024/01/05 03:11:43;;;;;;;8.10;7.10;;;;;;;0.41;97.97;97032.64;106540;1271;22569;-79
2024/01/05 03:14:11;;;;;;;6.90;6.20;;;;;;;0.39;97.97;97036.91;106543;1270;22623;-79
2024/01/05 03:16:39;;;;;;;6.20;5.60;;;;;;;0.40;98.07;97034.80;106498;1283;24333;-79
2024/01/05 03:19:07;;;;;;;7.10;6.40;;;;;;;0.40;98.34;97037.02;106566;1269;22579;-77
2024/01/05 03:21:35;;;;;;;6.60;6.00;;;;;;;0.39;98.22;97034.32;106257;1272;23362;-77
2024/01/05 03:24:03;;;;;;;6.60;5.90;;;;;;;0.35;98.26;97036.71;106169;1283;22794;-78
2024/01/05 03:26:31;;;;;;;6.00;5.30;;;;;;;0.35;98.30;97040.42;106279;1273;22539;-78
2024/01/05 03:29:01;;;;;;;6.70;6.10;;;;;;;0.35;98.45;97043.60;106280;1273;24234;-78
2024/01/05 03:31:28;;;;;;;6.30;5.70;;;;;;;0.37;98.58;97043.14;106648;1276;22674;-78
2024/01/05 03:33:56;;;;;;;6.40;5.80;;;;;;;0.35;98.59;97043.66;106609;1280;25264;-78
2024/01/05 03:36:25;;;;;;;8.20;6.20;;;;;;;0.33;98.47;97046.94;106702;1276;22551;-79
2024/01/05 03:38:54;;;;;;;7.10;6.40;;;;;;;0.30;98.68;97046.42;106561;1277;22561;-78
2024/01/05 03:41:22;;;;;;;6.60;6.00;;;;;;;0.29;98.76;97048.98;106630;1283;22582;-78
2024/01/05 03:43:50;;;;;;;6.90;6.20;;;;;;;0.30;99.46;97049.03;106550;1276;25487;-79
2024/01/05 03:46:17;;;;;;;7.20;6.50;;;;;;;0.26;99.60;97041.05;106697;1270;24319;-79
2024/01/05 03:48:46;;;;;;;6.80;6.10;;;;;;;0.18;100.00;97040.88;106573;1269;24279;-79
2024/01/05 03:51:14;;;;;;;7.70;6.90;;;;;;;0.13;100.00;97038.29;106547;1283;24465;-79
2024/01/05 03:53:42;;;;;;;7.00;6.30;;;;;;;0.05;100.00;97038.44;106572;1269;26007;-78
2024/01/05 03:56:10;;;;;;;8.00;6.60;;;;;;;-0.02;100.00;97036.59;106620;1276;22587;-78
2024/01/05 03:58:38;;;;;;;7.80;7.10;;;;;;;-0.04;100.00;97030.01;106639;1276;25360;-79
2024/01/05 04:01:06;;;;;;;8.00;7.20;;;;;;;-0.06;100.00;97030.61;106370;1283;22536;-79
2024/01/05 04:03:34;;;;;;;8.50;7.30;;;;;;;-0.11;100.00;97029.62;106410;1280;22538;-78
2024/01/05 04:06:03;;;;;;;7.90;7.10;;;;;;;-0.12;100.00;97035.77;106179;1270;22603;-78
2024/01/05 04:08:32;;;;;;;7.60;6.90;;;;;;;-0.11;100.00;97034.02;106680;1270;25375;-77
2024/01/05 04:10:59;;;;;;;7.10;6.40;;;;;;;-0.15;100.00;97036.73;106618;1276;22537;-78
2024/01/05 04:13:27;;;;;;;7.60;6.90;;;;;;;-0.16;100.00;97037.23;106421;1282;22573;-78
2024/01/05 04:15:55;;;;;;;10.70;9.70;;;;;;;-0.19;100.00;97036.53;106334;1268;22536;-77
2024/01/05 04:18:23;;;;;;;9.90;9.00;;;;;;;-0.20;100.00;97036.30;106232;1272;22547;-78
2024/01/05 04:20:51;;;;;;;9.50;8.60;;;;;;;-0.20;100.00;97045.09;106416;1277;25440;-78
2024/01/05 04:23:19;;;;;;;9.90;9.00;;;;;;;-0.21;100.00;97045.63;106629;1283;22658;-77
2024/01/05 04:25:47;;;;;;;10.40;9.40;;;;;;;-0.21;100.00;97044.35;106649;1271;24249;-77
2024/01/05 04:28:16;;;;;;;10.30;9.30;;;;;;;-0.26;100.00;97039.48;106330;1283;22794;-76
2024/01/05 04:30:44;;;;;;;10.00;9.00;;;;;;;-0.26;100.00;97038.48;106445;1280;22542;-77
2024/01/05 04:33:12;;;;;;;10.80;9.20;;;;;;;-0.28;100.00;97040.27;106319;1280;22532;-77
2024/01/05 04:35:41;;;;;;;9.50;8.50;;;;;;;-0.33;100.00;97035.56;106243;1275;25389;-77
2024/01/05 04:38:09;;;;;;;10.60;8.90;;;;;;;-0.30;100.00;97036.64;106282;1270;22539;-77
2024/01/05 04:40:36;;;;;;;11.70;10.50;;;;;;;-0.26;100.00;97039.38;106304;1276;22533;-79
2024/01/05 04:43:04;;;;;;;10.90;9.90;;;;;;;-0.28;100.00;97034.23;106672;1270;22545;-77
2024/01/05 04:45:35;;;;;;;10.20;8.30;;;;;;;-0.32;100.00;97043.08;106249;1268;22625;-77
2024/01/05 04:48:03;;;;;;;8.70;7.90;;;;;;;-0.32;100.00;97047.27;106369;1261;25343;-77
2024/01/05 04:50:31;;;;;;;7.70;6.70;;;;;;;-0.34;100.00;97044.80;106338;1272;23273;-77
2024/01/05 04:52:59;;;;;;;8.20;7.40;;;;;;;-0.37;100.00;97043.89;106230;1283;22546;-77
2024/01/05 04:55:27;;;;;;;10.70;9.60;;;;;;;-0.38;100.00;97044.94;106262;1270;23030;-77
2024/01/05 04:57:56;;;;;;;11.30;10.20;;;;;;;-0.43;100.00;97050.31;106283;1283;24248;-78
2024/01/05 05:00:24;;;;;;;10.70;9.70;;;;;;;-0.47;100.00;97050.39;106305;1273;22541;-79
2024/01/05 05:02:52;;;;;;;11.50;10.40;;;;;;;-0.46;100.00;97056.65;106687;1282;22546;-79
2024/01/05 05:05:22;;;;;;;10.50;9.50;;;;;;;-0.44;100.00;97055.77;106669;1270;22633;-77
2024/01/05 05:07:50;;;;;;;11.90;10.70;;;;;;;-0.43;100.00;97060.97;106667;1273;22590;-78
2024/01/05 05:10:18;;;;;;;13.80;12.50;;;;;;;-0.43;100.00;97064.40;106293;1272;23069;-78
2024/01/05 05:12:46;;;;;;;19.90;17.90;;;;;;;-0.39;100.00;97073.65;106266;1283;24239;-78
2024/01/05 05:15:14;;;;;;;23.10;20.90;;;;;;;-0.35;100.00;97076.61;106404;1282;22552;-78
2024/01/05 05:17:42;;;;;;;13.50;12.20;;;;;;;-0.30;100.00;97080.54;106631;1273;22564;-80
2024/01/05 05:20:11;;;;;;;13.60;12.30;;;;;;;-0.30;100.00;97087.16;106712;1283;22547;-79
2024/01/05 05:22:39;;;;;;;16.50;15.00;;;;;;;-0.33;100.00;97087.70;106556;1283;22560;-79
2024/01/05 05:25:07;;;;;;;14.00;12.70;;;;;;;-0.33;100.00;97088.01;106602;1270;24259;-78
2024/01/05 05:27:35;;;;;;;19.80;18.20;;;;;;;-0.30;100.00;97082.55;106594;1272;23363;-78
2024/01/05 05:30:05;;;;;;;15.00;13.60;;;;;;;-0.29;100.00;97088.85;106123;1277;22565;-77
2024/01/05 05:32:33;;;;;;;10.80;9.80;;;;;;;-0.33;100.00;97089.18;106374;1261;22542;-77
2024/01/05 05:35:01;;;;;;;11.50;9.30;;;;;;;-0.39;100.00;97092.29;106363;1277;25537;-78
2024/01/05 05:37:29;;;;;;;11.00;10.00;;;;;;;-0.41;100.00;97092.42;106231;1277;25511;-78
2024/01/05 05:39:57;;;;;;;10.30;9.30;;;;;;;-0.39;100.00;97098.00;106234;1281;25353;-77
2024/01/05 05:42:25;;;;;;;10.30;9.30;;;;;;;-0.39;100.00;97102.30;106164;1268;22623;-77
2024/01/05 05:44:53;;;;;;;10.10;9.20;;;;;;;-0.35;100.00;97106.41;106566;1283;22566;-77
2024/01/05 05:47:21;;;;;;;9.80;8.90;;;;;;;-0.34;100.00;97108.48;106216;1273;22641;-77
2024/01/05 05:49:49;;;;;;;10.10;9.10;;;;;;;-0.37;100.00;97113.16;106261;1271;25491;-78
2024/01/05 05:52:17;;;;;;;11.30;10.20;;;;;;;-0.41;100.00;97112.17;106629;1283;23158;-78
2024/01/05 05:54:45;;;;;;;11.60;10.40;;;;;;;-0.39;100.00;97120.77;106539;1273;24300;-78
2024/01/05 05:57:12;;;;;;;11.60;10.50;;;;;;;-0.37;100.00;97123.29;106655;1270;22668;-79
2024/01/05 05:59:41;;;;;;;12.30;11.10;;;;;;;-0.34;100.00;97118.71;106646;1269;22775;-79
2024/01/05 06:02:09;;;;;;;18.80;16.80;;;;;;;-0.35;100.00;97117.80;106557;1276;22547;-79
2024/01/05 06:04:37;;;;;;;36.20;31.40;;;;;;;-0.38;100.00;97115.38;106363;1277;24451;-78
2024/01/05 06:07:05;;;;;;;62.00;55.60;;;;;;;-0.38;100.00;97119.91;106257;1273;22655;-78
2024/01/05 06:09:33;;;;;;;57.30;51.40;;;;;;;-0.38;100.00;97121.89;106481;1274;22546;-78
2024/01/05 06:12:01;;;;;;;49.90;45.00;;;;;;;-0.32;100.00;97123.81;106455;1271;25618;-79
2024/01/05 06:14:29;;;;;;;45.30;41.30;;;;;;;-0.28;100.00;97123.48;106613;1276;25395;-78
2024/01/05 06:16:57;;;;;;;40.20;36.40;;;;;;;-0.25;100.00;97121.73;106649;1270;25360;-77
2024/01/05 06:19:25;;;;;;;24.10;21.80;;;;;;;-0.23;100.00;97116.55;106272;1270;25460;-77
2024/01/05 06:21:53;;;;;;;19.30;17.50;;;;;;;-0.25;100.00;97116.06;106277;1271;22552;-80
2024/01/05 06:24:21;;;;;;;20.20;18.10;;;;;;;-0.28;100.00;97110.25;106624;1273;22532;-79
2024/01/05 06:26:49;;;;;;;16.20;14.70;;;;;;;-0.23;100.00;97110.19;106652;1283;25523;-79
2024/01/05 06:29:17;;;;;;;14.00;12.60;;;;;;;-0.16;100.00;97101.85;106704;1282;22600;-78
2024/01/05 06:31:45;;;;;;;13.30;12.10;;;;;;;-0.09;100.00;97097.22;106657;1282;23621;-77
2024/01/05 06:34:14;;;;;;;12.60;11.40;;;;;;;-0.03;100.00;97095.64;106278;1268;25396;-78
2024/01/05 06:36:42;;;;;;;12.60;11.50;;;;;;;0.00;100.00;97097.41;106232;1280;23108;-78
2024/01/05 06:39:10;;;;;;;12.30;11.20;;;;;;;0.01;100.00;97096.20;106542;1268;22813;-78
2024/01/05 06:41:38;;;;;;;12.50;11.40;;;;;;;0.03;100.00;97094.27;106703;1270;22529;-77
2024/01/05 06:44:06;;;;;;;12.50;11.30;;;;;;;0.02;100.00;97092.33;106325;1272;24275;-78
2024/01/05 06:46:34;;;;;;;12.80;11.60;;;;;;;0.02;100.00;97098.13;106296;1283;24214;-77
2024/01/05 06:49:03;;;;;;;12.30;11.10;;;;;;;0.08;100.00;97100.87;106401;1273;22807;-77
2024/01/05 06:51:41;;;;;;;11.80;10.50;;;;;;;0.16;100.00;97103.06;106345;1283;23010;-78
2024/01/05 06:54:10;;;;;;;13.30;12.00;;;;;;;0.22;100.00;97103.13;106477;1282;25470;-79
2024/01/05 06:56:38;;;;;;;12.90;11.70;;;;;;;0.26;100.00;97106.97;106284;1271;25400;-78
2024/01/05 06:59:06;;;;;;;14.90;13.60;;;;;;;0.27;100.00;97104.13;106467;1283;22693;-79
2024/01/05 07:01:34;;;;;;;15.10;13.70;;;;;;;0.29;100.00;97106.30;106248;1280;22547;-77
2024/01/05 07:04:03;;;;;;;13.30;12.00;;;;;;;0.29;100.00;97110.70;106622;1275;22550;-77
2024/01/05 07:06:31;;;;;;;16.30;14.90;;;;;;;0.30;100.00;97111.36;106231;1270;24081;-77
2024/01/05 07:08:59;;;;;;;16.90;15.30;;;;;;;0.34;100.00;97110.64;106257;1272;24240;-77
2024/01/05 07:11:27;;;;;;;18.20;16.50;;;;;;;0.37;100.00;97108.55;106216;1261;25263;-77
2024/01/05 07:13:55;;;;;;;51.00;46.90;;;;;;;0.38;100.00;97109.11;106324;1277;22866;-78
2024/01/05 07:16:23;;;;;;;37.60;34.60;;;;;;;0.38;100.00;97106.21;106421;1277;22539;-76
2024/01/05 07:18:51;;;;;;;23.20;21.30;;;;;;;0.38;100.00;97111.59;106291;1283;22791;-77
2024/01/05 07:21:19;;;;;;;22.80;20.70;;;;;;;0.37;100.00;97116.81;106711;1283;24770;-77
2024/01/05 07:23:47;;;;;;;25.20;23.00;;;;;;;0.38;100.00;97120.33;106334;1283;23232;-77
2024/01/05 07:26:20;;;;;;;27.50;25.10;;;;;;;0.39;100.00;97117.80;106261;1273;25503;-76
2024/01/05 07:28:48;;;;;;;35.40;32.00;;;;;;;0.42;100.00;97112.62;106247;1272;22550;-76
2024/01/05 07:31:22;;;;;;;31.40;28.40;;;;;;;0.43;100.00;97105.52;106242;1269;22663;-76
2024/01/05 07:33:50;;;;;;;33.10;30.10;;;;;;;0.45;100.00;97099.08;106270;1261;25591;-76
2024/01/05 07:36:18;;;;;;;18.50;16.90;;;;;;;0.49;100.00;97102.17;106262;1273;25372;-76
2024/01/05 07:38:46;;;;;;;16.20;14.80;;;;;;;0.47;100.00;97097.34;106329;1283;22546;-76
2024/01/05 07:41:18;;;;;;;20.10;18.40;;;;;;;0.47;100.00;97087.84;106295;1271;24248;-78
2024/01/05 07:44:12;;;;;;;15.20;13.90;;;;;;;0.44;100.00;97082.16;106350;1283;22542;-76
2024/01/05 07:46:41;;;;;;;14.10;12.70;;;;;;;0.45;100.00;97080.25;106320;1283;25285;-78
2024/01/05 07:49:09;;;;;;;14.30;13.00;;;;;;;0.49;100.00;97083.94;106638;1283;22547;-77
2024/01/05 07:51:37;;;;;;;12.70;11.50;;;;;;;0.51;100.00;97089.42;106605;1282;22535;-77
2024/01/05 07:54:09;;;;;;;13.10;11.80;;;;;;;0.54;100.00;97095.06;106184;1283;22569;-78
2024/01/05 07:56:40;;;;;;;20.00;18.10;;;;;;;0.58;100.00;97095.94;106689;1269;22542;-78
2024/01/05 07:59:08;;;;;;;23.50;21.40;;;;;;;0.62;100.00;97098.73;106625;1271;25404;-77
2024/01/05 08:01:36;;;;;;;23.10;20.80;;;;;;;0.65;100.00;97092.17;106354;1280;22684;-77
2024/01/05 08:04:04;;;;;;;19.90;18.20;;;;;;;0.67;100.00;97091.23;106294;1278;24233;-77
2024/01/05 08:06:32;;;;;;;17.30;15.80;;;;;;;0.66;100.00;97084.55;106277;1270;22553;-78
2024/01/05 08:09:00;;;;;;;17.80;16.10;;;;;;;0.64;100.00;97086.17;106322;1272;23238;-76
2024/01/05 08:11:28;;;;;;;17.00;15.40;;;;;;;0.65;100.00;97091.17;106668;1277;25381;-75
2024/01/05 08:13:56;;;;;;;17.50;16.10;;;;;;;0.67;100.00;97094.42;106274;1270;22778;-76
2024/01/05 08:16:25;;;;;;;23.00;21.10;;;;;;;0.70;100.00;97098.83;106287;1268;25623;-77
2024/01/05 08:18:53;;;;;;;22.10;20.20;;;;;;;0.69;100.00;97099.30;106254;1284;25315;-78
2024/01/05 08:21:21;;;;;;;17.20;15.70;;;;;;;0.66;100.00;97096.27;106684;1270;22787;-77
2024/01/05 08:23:49;;;;;;;15.90;14.50;;;;;;;0.63;100.00;97099.32;106314;1273;24235;-78
2024/01/05 08:26:18;;;;;;;17.20;15.60;;;;;;;0.59;100.00;97097.05;106257;1270;23471;-78
2024/01/05 08:28:47;;;;;;;17.00;15.60;;;;;;;0.58;100.00;97098.80;106749;1277;24249;-78
2024/01/05 08:31:15;;;;;;;16.10;14.60;;;;;;;0.61;100.00;97102.64;106770;1278;22860;-78
2024/01/05 08:33:43;;;;;;;15.60;14.20;;;;;;;0.62;100.00;97100.69;106738;1281;24377;-78
2024/01/05 08:36:12;;;;;;;16.20;14.80;;;;;;;0.65;100.00;97102.21;106634;1271;22562;-78
2024/01/05 08:38:40;;;;;;;16.90;15.20;;;;;;;0.71;100.00;97100.80;106806;1265;22733;-78
2024/01/05 08:41:08;;;;;;;17.40;15.80;;;;;;;0.73;100.00;97107.17;106262;1265;22994;-78
2024/01/05 08:43:36;;;;;;;14.90;13.50;;;;;;;0.75;100.00;97112.55;106268;1271;22764;-77
2024/01/05 08:46:05;;;;;;;15.30;13.90;;;;;;;0.74;100.00;97111.33;106646;1261;22580;-78
2024/01/05 08:48:33;;;;;;;15.60;14.00;;;;;;;0.73;100.00;97112.06;106621;1274;22592;-78
2024/01/05 08:51:01;;;;;;;13.10;11.80;;;;;;;0.75;100.00;97113.67;106666;1281;24380;-78
2024/01/05 08:53:30;;;;;;;13.30;12.00;;;;;;;0.78;100.00;97108.98;106618;1283;25314;-78
2024/01/05 08:55:58;;;;;;;14.40;13.10;;;;;;;0.81;100.00;97107.40;106315;1273;22568;-78
2024/01/05 08:58:26;;;;;;;14.10;12.70;;;;;;;0.80;100.00;97102.52;106717;1271;22664;-78
2024/01/05 09:00:54;;;;;;;15.40;14.00;;;;;;;0.82;100.00;97103.64;106580;1271;22774;-78
2024/01/05 09:03:23;;;;;;;15.80;14.50;;;;;;;0.83;100.00;97102.16;107197;1281;22674;-78
2024/01/05 09:05:51;;;;;;;16.30;14.70;;;;;;;0.84;100.00;97098.98;106334;1283;25435;-76
2024/01/05 09:08:19;;;;;;;17.40;15.90;;;;;;;0.86;100.00;97103.19;106297;1283;22624;-77
2024/01/05 09:10:47;;;;;;;17.20;15.50;;;;;;;0.91;100.00;97099.88;106541;1283;22592;-77
2024/01/05 09:13:15;;;;;;;20.10;18.10;;;;;;;0.97;100.00;97098.11;106359;1278;22544;-81
2024/01/05 09:15:43;;;;;;;23.80;21.40;;;;;;;0.97;100.00;97095.68;106340;1280;24320;-78
2024/01/05 09:18:11;;;;;;;21.40;19.30;;;;;;;1.01;100.00;97096.17;106305;1269;22539;-78
2024/01/05 09:20:39;;;;;;;22.30;20.20;;;;;;;1.02;100.00;97088.74;106296;1277;25255;-78
2024/01/05 09:23:08;;;;;;;22.20;20.00;;;;;;;1.02;100.00;97084.23;106299;1277;24266;-78
2024/01/05 09:25:36;;;;;;;21.40;19.10;;;;;;;1.05;100.00;97090.52;106516;1280;25362;-79
2024/01/05 09:28:09;;;;;;;20.30;17.80;;;;;;;1.06;100.00;97089.14;106586;1271;25457;-80
2024/01/05 09:30:37;;;;;;;20.50;18.50;;;;;;;1.10;100.00;97095.64;106589;1280;24356;-78
2024/01/05 09:33:05;;;;;;;21.50;19.40;;;;;;;1.15;100.00;97091.14;106674;1271;23905;-78
2024/01/05 09:35:33;;;;;;;28.10;25.20;;;;;;;1.20;100.00;97096.85;106656;1280;24259;-76
2024/01/05 09:38:01;;;;;;;30.60;27.60;;;;;;;1.23;100.00;97098.35;106229;1280;24360;-78
2024/01/05 09:40:29;;;;;;;28.60;25.90;;;;;;;1.25;100.00;97097.52;106350;1278;25334;-79
2024/01/05 09:42:57;;;;;;;27.10;24.60;;;;;;;1.27;100.00;97101.88;106219;1283;24283;-77
2024/01/05 09:45:25;;;;;;;25.10;22.60;;;;;;;1.29;100.00;97105.92;106270;1278;23408;-77
2024/01/05 09:47:57;;;;;;;27.00;24.40;;;;;;;1.32;100.00;97110.88;106210;1271;26534;-77
2024/01/05 09:50:26;;;;;;;24.50;22.10;;;;;;;1.40;100.00;97110.48;106402;1268;22644;-78
2024/01/05 09:52:54;;;;;;;25.90;23.40;;;;;;;1.48;100.00;97113.34;106491;1273;198044;-78
2024/01/05 09:55:24;;;;;;;24.50;22.00;;;;;;;1.54;100.00;97111.83;106626;1262;23080;-78
2024/01/05 09:57:52;;;;;;;25.40;22.70;;;;;;;1.53;100.00;97115.11;106631;1273;25369;-78
2024/01/05 10:00:23;;;;;;;28.70;25.40;;;;;;;1.51;100.00;97112.14;106615;1268;23307;-77
2024/01/05 10:02:58;;;;;;;31.30;27.90;;;;;;;1.49;100.00;97113.83;106440;1283;24384;-77
2024/01/05 10:05:58;;;;;;;35.20;31.30;;;;;;;1.46;100.00;97114.77;106363;1274;22558;-77
2024/01/05 10:08:26;;;;;;;37.70;31.70;;;;;;;1.48;100.00;97118.44;106318;1281;22655;-78
2024/01/05 10:10:59;;;;;;;32.20;28.60;;;;;;;1.53;100.00;97118.88;106194;1284;22546;-79
2024/01/05 10:13:27;;;;;;;28.60;25.40;;;;;;;1.55;100.00;97112.21;106557;1278;22691;-77
2024/01/05 10:15:56;;;;;;;27.50;24.60;;;;;;;1.61;100.00;97113.50;106205;1278;25266;-78
2024/01/05 10:18:25;;;;;;;27.00;24.30;;;;;;;1.64;100.00;97110.80;106355;1273;22599;-78
2024/01/05 10:20:57;;;;;;;31.70;28.50;;;;;;;1.69;100.00;97112.68;106866;1281;22628;-78
2024/01/05 10:23:25;;;;;;;30.50;27.40;;;;;;;1.72;100.00;97115.50;106712;1284;25493;-79
2024/01/05 10:26:20;;;;;;;29.40;26.50;;;;;;;1.76;100.00;97114.34;106657;1278;25266;-78
2024/01/05 10:28:49;;;;;;;;;;;;;;;1.82;100.00;97118.14;106270;1269;22527;-79
2024/01/05 10:31:18;;;;;;;29.60;26.50;;;;;;;1.87;100.00;97117.77;106654;1274;23228;-78
2024/01/05 10:33:51;;;;;;;31.10;27.80;;;;;;;1.92;100.00;97113.80;106649;1272;22533;-78
2024/01/05 10:36:24;;;;;;;33.10;29.80;;;;;;;1.96;100.00;97106.32;106701;1278;22546;-77
2024/01/05 10:38:52;;;;;;;37.00;33.10;;;;;;;2.01;100.00;97103.67;106288;1281;24082;-79
2024/01/05 10:41:21;;;;;;;28.40;25.50;;;;;;;2.01;100.00;97090.83;106801;1284;23412;-77
2024/01/05 10:43:49;;;;;;;26.80;24.00;;;;;;;2.04;100.00;97088.65;106381;1281;22608;-78
2024/01/05 10:46:20;;;;;;;26.40;23.60;;;;;;;2.08;100.00;97089.70;106716;1281;22684;-78
2024/01/05 10:48:49;;;;;;;25.40;22.70;;;;;;;2.12;100.00;97094.77;106651;1278;22642;-78
2024/01/05 10:51:22;;;;;;;27.70;24.90;;;;;;;2.16;100.00;97097.80;106613;1284;24246;-78
2024/01/05 10:53:51;;;;;;;26.90;24.20;;;;;;;2.14;100.00;97103.22;106577;1284;22559;-79
2024/01/05 10:56:20;;;;;;;27.20;24.40;;;;;;;2.11;100.00;97109.60;106526;1271;22548;-79
2024/01/05 10:58:52;;;;;;;25.60;23.00;;;;;;;2.05;100.00;97105.23;106532;1281;22578;-79
2024/01/05 11:01:21;;;;;;;28.40;25.40;;;;;;;2.08;100.00;97104.91;106622;1272;22546;-77
2024/01/05 11:03:52;;;;;;;27.80;25.10;;;;;;;2.12;100.00;97099.60;106342;1274;24235;-78
2024/01/05 11:06:22;;;;;;;26.50;23.80;;;;;;;2.18;100.00;97098.81;106294;1281;24227;-77
2024/01/05 11:08:53;;;;;;;27.50;24.80;;;;;;;2.19;100.00;97091.00;106427;1284;22551;-77
2024/01/05 11:11:29;;;;;;;27.90;25.10;;;;;;;2.23;100.00;97089.63;106792;1268;22642;-78
2024/01/05 11:14:26;;;;;;;28.70;26.00;;;;;;;2.34;100.00;97082.67;107075;1265;24285;-78
2024/01/05 11:17:25;;;;;;;27.60;24.70;;;;;;;2.48;100.00;97078.64;106915;1284;24529;-78
2024/01/05 11:20:17;;;;;;;24.00;21.70;;;;;;;2.70;100.00;97074.58;106729;1271;22556;-77
2024/01/05 11:22:48;;;;;;;23.50;21.20;;;;;;;2.91;100.00;97068.84;106283;1268;24255;-78
2024/01/05 11:25:16;;;;;;;23.70;21.20;;;;;;;3.11;100.00;97072.00;106277;1270;22536;-77
2024/01/05 11:27:46;;;;;;;22.80;20.70;;;;;;;3.49;100.00;97067.70;106313;1274;22692;-77
2024/01/05 11:30:34;;;;;;;22.70;20.40;;;;;;;4.18;100.00;97063.00;106717;1266;22547;-77